Shreveport Regional Airport
KSHV : now visible

Airfield :











YOU CAN JOIN US ON...

 
LOGIN :

Register | Disclaimer

   EN    FR    IT 

 









Legend :    VFR   Marginal VFR   IFR   Intensive IFR   Very Intensive IFR
Visi :
Ceiling :
>= 8 km
>= 3000ft
5 to 8 km
1000 to 3000 ft
1500m to 5 km
500 to 1000 ft
800 to 1500m
200 to 500 ft
< 800m
< 200 ft
Symbols :   Thunderstorms  Fog  Heavy snow  Heavy precipitations  Wind > 20 kt






- Airport Elevation : 258 ft
- IATA code : SHV


KSHV - Shreveport Regional

CURRENT METAR :
  • 112056Z 22008KT 10SM SCT048 34/23 A2994 RMK AO2 SLP134 T03440228 56020

EXPIRED METARs :
  • 111956Z 21009KT 10SM FEW045 35/23 A2995 RMK AO2 SLP137 T03500233
  • 111856Z 19007KT 10SM FEW043 34/24 A2997 RMK AO2 SLP145 T03390239

TAF KSHV
Valid from the 11 at 18:00 until the 12 at 18:00 UTC


111720Z 1118/1218 24010KT P6SM SCT030
FM112100 20009KT P6SM VCTS SCT050CB
FM120100 VRB06KT P6SM VCSH FEW050 BKN250
FM120300 17005KT P6SM SCT250
FM121500 24011KT P6SM OVC025
KZFW FIR / North America



MET'MAP, your aeronautical weather chart ! - Copyright ORBIFLY December 2007 - Disclaimer

ORBIFLY MET'MAP TEAM :

Programming & Development : Alexandra Zaïnal
Concept & original design : Baudouin d'Aumeries
Assistance for programming : Marc-Olivier Méhu
Technical & hardware support : Manuel Goepfert

Contact : metmap@orbifly.com




SOURCES & CREDITS :

   NOAA       Earth
Advisory